메인 페이지
METAR-TAF:

METAR-TAF

공항 :

아폰수 페나 국제공항

쿠리치바, 파라나, 브라질

위도: 25-31S, 경도: 049-10W, 고도: 908m

현재 날씨관측

예보는 8분 전, 23:00시(UTC)에 발표되었습니다.
북동5kt
온도 18°C
습도 94%
기압 1018 hPa
시정: 8000m
고도 10000ft 상공 흐림
약한비,

METAR: SBCT 142300Z 05005KT 8000 -RA OVC100 18/17 Q1018

시각: 20:08 (23:08 UTC)

예보

예보는 8 시간 8분 전, 15:00시(UTC)에 발표되었습니다.
예보 대상 시간: 14일 18시부터 15일 18시까지 (UTC)
6kt
시정: 4000m
고도 600ft 상공 구름 많음
약한비
전환 중
15일 03시부터 15일 04시까지 (UTC)
고도 300ft 상공 구름 많음
전환 중
15일 12시부터 15일 14시까지 (UTC)
시정: 8000m
고도 1000ft 상공 구름 많음
고도 1500ft 상공 흐림

TAF: SBCT 141500Z 1418/1518 09006KT 4000 -RA BKN006 TX20/1418Z TN17/1504Z BECMG 1503/1504 BKN003 BECMG 1512/1514 8000 BKN010 OVC015 RMK PEC

4,000개 이상의 공항 관측 자료 및 예보 (METAR 및 TAF 보고).

지도상에서 검색 가능한 기상관측소가 노란 점과 빨간 점으로 표시되어 있습니다.

기상관측소 명을 보려면 표시 위로 마우스를 이동하세요.

날씨 관측과 예보를 보려면 클릭하세요.

지도 변경 : 확대하려면 엑스 표시가 있는 녹색 버튼, 축소하려면 빼기 표시가 있는 녹색 버튼, 다음 페이지의 지도를 보려면 녹색 화살표를 클릭하세요.


METAR-TAF: